Time;durP1;ratioP1;P1;durP2;ratioP2;P2;SDS_P1;SDS_P2;PMS_P1;PMS_P2;Temp;Humidity;BMP_temperature;BMP_pressure;BME280_temperature;BME280_humidity;BME280_pressure;Samples;Min_cycle;Max_cycle;Signal;HPM_P1;HPM_P2
2024/01/22 00:01:44;;;;;;;14.63;7.70;;;6.00;1.00;;;;;;5011912;28;20176;-52
2024/01/22 00:04:10;;;;;;;16.37;7.57;;;6.00;1.00;;;;;;5011851;28;20216;-51
2024/01/22 00:06:42;;;;;;;15.90;8.30;;;6.00;1.00;;;;;;5011039;28;20418;-51
2024/01/22 00:09:08;;;;;;;16.93;8.70;;;5.90;1.00;;;;;;5011553;28;20558;-51
2024/01/22 00:11:33;;;;;;;18.27;8.20;;;5.80;1.00;;;;;;5011262;28;20423;-51
2024/01/22 00:13:59;;;;;;;19.53;8.90;;;5.80;12.80;;;;;;5010169;28;20188;-51
2024/01/22 00:16:26;;;;;;;18.40;8.33;;;5.70;22.80;;;;;;5011262;28;20267;-51
2024/01/22 00:18:51;;;;;;;13.83;8.40;;;5.70;35.80;;;;;;5012162;28;20422;-51
2024/01/22 00:21:17;;;;;;;19.03;8.20;;;5.80;42.90;;;;;;5011831;28;20478;-50
2024/01/22 00:23:43;;;;;;;17.23;8.60;;;5.80;46.60;;;;;;5010176;28;20215;-51
2024/01/22 00:26:12;;;;;;;20.80;8.50;;;5.80;48.70;;;;;;5010532;28;20184;-51
2024/01/22 00:28:39;;;;;;;20.67;8.17;;;5.80;55.20;;;;;;5011040;28;20199;-51
2024/01/22 00:31:04;;;;;;;15.10;7.90;;;5.80;53.10;;;;;;5012189;28;20445;-51
2024/01/22 00:33:30;;;;;;;14.70;8.03;;;5.80;49.60;;;;;;5010685;28;20419;-51
2024/01/22 00:35:56;;;;;;;13.50;7.07;;;5.80;56.40;;;;;;5010009;28;20215;-51
2024/01/22 00:38:21;;;;;;;18.83;7.93;;;5.80;45.00;;;;;;5010163;28;20180;-50
2024/01/22 00:40:47;;;;;;;18.37;8.67;;;5.80;48.90;;;;;;5011020;28;20211;-51
2024/01/22 00:43:12;;;;;;;26.43;8.47;;;5.80;45.20;;;;;;5012119;28;20215;-52
2024/01/22 00:45:38;;;;;;;20.20;8.47;;;5.90;37.40;;;;;;5010897;28;20184;-52
2024/01/22 00:48:04;;;;;;;12.67;7.63;;;5.90;30.00;;;;;;5010050;28;20637;-52
2024/01/22 00:50:30;;;;;;;12.90;7.73;;;5.90;29.40;;;;;;5009340;28;20207;-51
2024/01/22 00:52:56;;;;;;;15.70;8.40;;;5.80;26.80;;;;;;5011102;28;20423;-52
2024/01/22 00:55:22;;;;;;;13.27;7.23;;;5.90;22.30;;;;;;5011404;28;20184;-52
2024/01/22 00:57:47;;;;;;;19.27;8.70;;;5.90;19.50;;;;;;5009875;28;20188;-51
2024/01/22 01:00:13;;;;;;;15.27;8.43;;;5.90;16.50;;;;;;5010666;28;20411;-52
2024/01/22 01:02:39;;;;;;;12.93;8.00;;;5.90;14.60;;;;;;5010470;28;20191;-52
2024/01/22 01:05:05;;;;;;;19.40;8.70;;;5.80;13.30;;;;;;5011107;28;20429;-52
2024/01/22 01:07:30;;;;;;;16.20;9.00;;;5.90;11.10;;;;;;5010470;28;20650;-52
2024/01/22 01:09:56;;;;;;;15.53;9.20;;;5.90;8.00;;;;;;5008095;28;20251;-52
2024/01/22 01:12:21;;;;;;;11.97;7.60;;;5.80;6.40;;;;;;5010947;28;20180;-53
2024/01/22 01:14:47;;;;;;;17.50;7.97;;;5.90;7.50;;;;;;5010992;28;20188;-51
2024/01/22 01:17:12;;;;;;;14.30;7.90;;;5.90;16.90;;;;;;5011231;28;20282;-51
2024/01/22 01:19:39;;;;;;;16.67;7.97;;;5.90;3.60;;;;;;5008333;28;20196;-53
2024/01/22 01:22:05;;;;;;;14.23;6.57;;;6.00;3.90;;;;;;5009763;28;20176;-51
2024/01/22 01:24:30;;;;;;;15.27;6.90;;;6.00;1.00;;;;;;5011271;28;20538;-52
2024/01/22 01:26:56;;;;;;;13.53;7.33;;;6.10;1.00;;;;;;5010723;28;20195;-51
2024/01/22 01:29:22;;;;;;;16.10;7.10;;;6.20;1.00;;;;;;5010359;28;20242;-53
2024/01/22 01:31:47;;;;;;;21.13;8.00;;;6.20;1.00;;;;;;5010085;28;20199;-51
2024/01/22 01:34:13;;;;;;;13.43;6.33;;;6.20;1.00;;;;;;5010003;28;20187;-51
2024/01/22 01:36:38;;;;;;;13.03;7.23;;;6.30;1.00;;;;;;5025982;28;20188;-51
2024/01/22 01:39:04;;;;;;;11.63;6.90;;;6.30;1.00;;;;;;5010163;28;20419;-51
2024/01/22 01:41:32;;;;;;;13.00;7.37;;;6.30;1.00;;;;;;5009886;28;20186;-52
2024/01/22 01:44:01;;;;;;;15.50;6.50;;;6.30;1.00;;;;;;5007735;28;20215;-51
2024/01/22 01:46:27;;;;;;;10.00;6.70;;;6.40;1.00;;;;;;5011453;28;20437;-51
2024/01/22 01:48:53;;;;;;;12.07;6.63;;;6.50;1.00;;;;;;5010581;28;20785;-51
2024/01/22 01:51:20;;;;;;;15.40;7.30;;;6.50;1.00;;;;;;5012194;28;20253;-51
2024/01/22 01:53:46;;;;;;;16.90;7.00;;;6.50;1.00;;;;;;5012982;28;20188;-52
2024/01/22 01:56:12;;;;;;;11.23;7.00;;;6.50;1.00;;;;;;5014605;28;20938;-52
2024/01/22 01:58:38;;;;;;;13.13;7.13;;;6.50;1.00;;;;;;5013354;28;20442;-51
2024/01/22 02:01:06;;;;;;;9.93;5.70;;;6.50;1.00;;;;;;5013662;28;20415;-51
2024/01/22 02:03:31;;;;;;;15.60;6.50;;;6.50;1.00;;;;;;5013751;28;20477;-51
2024/01/22 02:05:57;;;;;;;9.67;6.13;;;6.50;1.00;;;;;;5013076;28;20911;-52
2024/01/22 02:08:22;;;;;;;11.57;6.20;;;6.40;1.00;;;;;;5012769;28;20187;-51
2024/01/22 02:10:48;;;;;;;11.00;6.30;;;6.40;1.00;;;;;;5014679;28;20172;-50
2024/01/22 02:13:14;;;;;;;10.53;6.23;;;6.50;1.00;;;;;;5013899;28;20242;-52
2024/01/22 02:15:41;;;;;;;17.00;6.50;;;6.60;1.00;;;;;;5013151;28;20242;-52
2024/01/22 02:18:07;;;;;;;10.10;6.40;;;6.60;1.00;;;;;;5014028;28;20419;-52
2024/01/22 02:20:32;;;;;;;13.60;6.57;;;6.60;1.00;;;;;;5014359;28;20438;-51
2024/01/22 02:23:04;;;;;;;9.10;5.63;;;6.50;5.10;;;;;;5011530;28;20246;-51
2024/01/22 02:25:30;;;;;;;11.10;6.27;;;6.50;11.30;;;;;;5013109;28;20184;-52
2024/01/22 02:27:56;;;;;;;15.43;6.50;;;6.50;12.20;;;;;;5014163;28;20414;-52
2024/01/22 02:30:21;;;;;;;13.73;6.07;;;6.50;11.00;;;;;;5014802;28;20271;-52
2024/01/22 02:32:47;;;;;;;9.30;5.83;;;6.60;14.50;;;;;;5011836;28;20219;-51
2024/01/22 02:35:12;;;;;;;11.40;5.53;;;6.50;15.90;;;;;;5011921;28;20180;-52
2024/01/22 02:37:39;;;;;;;13.00;5.93;;;6.50;19.40;;;;;;5013542;28;20196;-52
2024/01/22 02:40:05;;;;;;;10.07;5.80;;;6.60;21.80;;;;;;5014816;28;20191;-52
2024/01/22 02:42:31;;;;;;;14.77;5.80;;;6.60;18.40;;;;;;5012755;28;20548;-53
2024/01/22 02:44:56;;;;;;;14.70;6.10;;;6.70;15.10;;;;;;5012485;28;20427;-52
2024/01/22 02:47:22;;;;;;;13.20;6.77;;;6.70;8.40;;;;;;5012105;28;20176;-52
2024/01/22 02:49:47;;;;;;;6.60;4.70;;;6.70;6.40;;;;;;5014361;28;20559;-51
2024/01/22 02:52:13;;;;;;;8.07;5.40;;;6.70;4.20;;;;;;5013250;28;20188;-52
2024/01/22 02:54:38;;;;;;;11.03;5.50;;;6.70;5.60;;;;;;5012696;28;20187;-53
2024/01/22 02:57:04;;;;;;;6.83;5.13;;;6.70;5.70;;;;;;5012045;28;20200;-52
2024/01/22 02:59:30;;;;;;;8.00;5.20;;;6.70;6.20;;;;;;5012395;28;20717;-52
2024/01/22 03:01:55;;;;;;;15.40;5.60;;;6.60;6.50;;;;;;5013070;28;20176;-52
2024/01/22 03:04:21;;;;;;;7.60;4.50;;;6.60;7.60;;;;;;5012024;28;20575;-51
2024/01/22 03:06:47;;;;;;;11.87;5.47;;;6.60;8.40;;;;;;5011931;28;20326;-51
2024/01/22 03:09:12;;;;;;;10.20;5.33;;;6.70;7.60;;;;;;5013913;28;20238;-52
2024/01/22 03:11:38;;;;;;;9.40;5.20;;;6.60;6.70;;;;;;5012084;28;20191;-52
2024/01/22 03:14:03;;;;;;;11.23;5.10;;;6.70;9.80;;;;;;5011768;28;20242;-52
2024/01/22 03:16:29;;;;;;;10.27;5.00;;;6.70;7.10;;;;;;5012488;28;20191;-52
2024/01/22 03:18:55;;;;;;;9.33;4.97;;;6.60;11.60;;;;;;5011100;28;20275;-52
2024/01/22 03:21:20;;;;;;;9.17;5.53;;;6.70;17.60;;;;;;5012841;28;20568;-52
2024/01/22 03:23:46;;;;;;;7.43;5.07;;;6.60;16.20;;;;;;5012708;28;20211;-51
2024/01/22 03:26:19;;;;;;;10.00;5.77;;;6.70;14.60;;;;;;5012526;28;20644;-52
2024/01/22 03:28:44;;;;;;;12.27;5.13;;;6.80;10.60;;;;;;5011697;28;20188;-52
2024/01/22 03:31:23;;;;;;;18.30;5.53;;;6.80;8.70;;;;;;5011657;28;20898;-52
2024/01/22 03:33:50;;;;;;;8.03;4.70;;;6.80;8.30;;;;;;5011601;28;20207;-51
2024/01/22 03:36:15;;;;;;;6.83;4.13;;;6.80;4.10;;;;;;5012286;28;20404;-52
2024/01/22 03:38:41;;;;;;;10.70;5.50;;;6.90;4.70;;;;;;5011816;28;20433;-52
2024/01/22 03:41:06;;;;;;;8.23;4.40;;;6.90;2.80;;;;;;5012514;28;20250;-52
2024/01/22 03:43:32;;;;;;;7.53;4.63;;;6.90;1.00;;;;;;5011800;28;20254;-51
2024/01/22 03:45:57;;;;;;;8.07;4.20;;;6.90;1.00;;;;;;5011119;28;20194;-51
2024/01/22 03:48:23;;;;;;;6.30;4.13;;;7.00;1.00;;;;;;5012406;28;20568;-51
2024/01/22 03:50:52;;;;;;;10.90;4.47;;;7.00;1.00;;;;;;5011646;28;20667;-51
2024/01/22 03:53:18;;;;;;;5.77;3.97;;;7.10;1.00;;;;;;5011886;28;20180;-51
2024/01/22 03:55:44;;;;;;;9.13;4.27;;;7.10;1.00;;;;;;5012112;28;20427;-52
2024/01/22 03:58:09;;;;;;;9.50;4.10;;;7.10;1.00;;;;;;5010050;28;20191;-52
2024/01/22 04:00:35;;;;;;;13.23;4.40;;;7.10;1.00;;;;;;5011344;28;20211;-52
2024/01/22 04:03:01;;;;;;;5.53;4.20;;;7.20;1.00;;;;;;5012515;28;20671;-52
2024/01/22 04:05:26;;;;;;;5.40;3.30;;;7.20;1.00;;;;;;5012120;28;20516;-51
2024/01/22 04:07:52;;;;;;;5.43;3.90;;;7.20;4.90;;;;;;5010806;28;20237;-52
2024/01/22 04:10:17;;;;;;;5.77;3.60;;;7.20;17.90;;;;;;5009523;28;20730;-51
2024/01/22 04:12:43;;;;;;;10.30;4.00;;;7.20;29.10;;;;;;5011966;28;20633;-51
2024/01/22 04:15:08;;;;;;;7.70;3.97;;;7.20;45.70;;;;;;5012046;28;20644;-51
2024/01/22 04:17:34;;;;;;;9.53;4.33;;;7.10;74.50;;;;;;5011398;28;20861;-51
2024/01/22 04:20:00;;;;;;;5.00;3.63;;;7.10;99.90;;;;;;5010260;28;20237;-52
2024/01/22 04:22:26;;;;;;;4.90;3.67;;;7.10;99.90;;;;;;5010979;28;20620;-52
2024/01/22 04:24:51;;;;;;;8.90;3.60;;;7.10;99.90;;;;;;5010226;28;20203;-51
2024/01/22 04:27:17;;;;;;;11.00;5.20;;;7.10;99.90;;;;;;5012706;28;20192;-50
2024/01/22 04:29:43;;;;;;;10.10;4.60;;;7.10;99.90;;;;;;5011676;28;20946;-51
2024/01/22 04:32:08;;;;;;;6.83;4.33;;;7.10;99.90;;;;;;5009712;28;20423;-51
2024/01/22 04:34:35;;;;;;;8.27;4.20;;;7.10;99.90;;;;;;5011003;28;20184;-51
2024/01/22 04:37:01;;;;;;;10.13;4.17;;;7.20;99.90;;;;;;5011081;28;20212;-51
2024/01/22 04:39:26;;;;;;;7.33;4.73;;;7.20;99.90;;;;;;5010958;28;20520;-52
2024/01/22 04:41:53;;;;;;;6.90;4.60;;;7.20;99.90;;;;;;5011353;28;20180;-51
2024/01/22 04:44:18;;;;;;;6.53;4.30;;;7.20;99.90;;;;;;5009459;28;20258;-50
2024/01/22 04:46:44;;;;;;;6.87;4.27;;;7.20;99.90;;;;;;5011575;28;20525;-51
2024/01/22 04:49:10;;;;;;;7.50;4.30;;;7.10;1.00;;;;;;5009559;28;20184;-52
2024/01/22 04:51:35;;;;;;;10.80;4.50;;;7.20;1.00;;;;;;5011983;28;20576;-51
2024/01/22 04:54:01;;;;;;;5.60;3.90;;;7.10;1.00;;;;;;5009955;28;20509;-51
2024/01/22 04:56:26;;;;;;;7.00;4.47;;;7.10;1.00;;;;;;5010006;28;20914;-51
2024/01/22 04:58:52;;;;;;;5.90;4.03;;;7.10;1.00;;;;;;5011332;28;20621;-51
2024/01/22 05:01:17;;;;;;;10.53;4.63;;;7.10;99.90;;;;;;5010197;28;20691;-52
2024/01/22 05:03:43;;;;;;;8.30;4.13;;;7.10;1.00;;;;;;5011763;28;20212;-51
2024/01/22 05:06:08;;;;;;;6.77;3.97;;;7.10;1.00;;;;;;5010211;28;20843;-51
2024/01/22 05:08:34;;;;;;;6.97;3.67;;;7.20;1.00;;;;;;5010998;28;20676;-51
2024/01/22 05:11:00;;;;;;;6.67;4.20;;;7.20;1.00;;;;;;5009989;28;20168;-52
2024/01/22 05:13:25;;;;;;;9.73;3.70;;;7.20;99.90;;;;;;5010361;28;20184;-51
2024/01/22 05:15:51;;;;;;;11.83;4.10;;;7.20;1.00;;;;;;5009967;28;20204;-51
2024/01/22 05:18:17;;;;;;;11.17;3.87;;;7.20;1.00;;;;;;5009263;28;20184;-52
2024/01/22 05:20:42;;;;;;;6.97;3.47;;;7.30;99.90;;;;;;5011470;28;20185;-52
2024/01/22 05:23:08;;;;;;;8.63;3.20;;;7.30;99.90;;;;;;5010824;28;20473;-52
2024/01/22 05:25:33;;;;;;;4.33;3.30;;;7.30;1.00;;;;;;5012833;28;20187;-51
2024/01/22 05:27:59;;;;;;;6.10;3.20;;;7.40;1.00;;;;;;5014786;28;20192;-51
2024/01/22 05:30:25;;;;;;;5.23;3.33;;;7.40;99.90;;;;;;5014616;28;20184;-52
2024/01/22 05:32:50;;;;;;;4.40;2.87;;;7.50;99.90;;;;;;5013802;28;20233;-51
2024/01/22 05:35:16;;;;;;;4.43;2.80;;;7.50;99.90;;;;;;5014454;28;20184;-52
2024/01/22 05:37:42;;;;;;;6.20;3.00;;;7.60;1.00;;;;;;5014607;28;20285;-51
2024/01/22 05:40:13;;;;;;;4.10;2.50;;;7.70;1.00;;;;;;5014379;28;20180;-51
2024/01/22 05:42:39;;;;;;;5.63;2.60;;;7.80;1.00;;;;;;5014183;28;20251;-52
2024/01/22 05:45:05;;;;;;;3.47;2.63;;;7.80;1.00;;;;;;5013439;28;20430;-51
2024/01/22 05:47:30;;;;;;;7.73;2.63;;;7.90;1.00;;;;;;5014771;28;20191;-51
2024/01/22 05:49:56;;;;;;;3.10;2.57;;;7.90;1.00;;;;;;5014214;28;20415;-52
2024/01/22 05:52:22;;;;;;;6.43;3.07;;;8.00;1.00;;;;;;5013723;28;20176;-52
2024/01/22 05:54:47;;;;;;;6.70;2.70;;;8.00;1.00;;;;;;5013666;28;20342;-51
2024/01/22 05:57:13;;;;;;;5.53;2.77;;;8.00;1.00;;;;;;5014361;28;20672;-52
2024/01/22 05:59:39;;;;;;;4.67;2.30;;;8.10;1.00;;;;;;5014635;28;20187;-52
2024/01/22 06:02:05;;;;;;;3.13;2.40;;;8.20;1.00;;;;;;5013909;28;20430;-53
2024/01/22 06:04:31;;;;;;;4.77;2.50;;;8.30;1.00;;;;;;5013075;28;20528;-51
2024/01/22 06:06:57;;;;;;;3.53;2.20;;;8.30;1.00;;;;;;5012772;28;20919;-52
2024/01/22 06:09:22;;;;;;;5.63;2.30;;;8.30;1.00;;;;;;5013201;28;20478;-51
2024/01/22 06:11:48;;;;;;;4.33;2.33;;;8.30;1.00;;;;;;5013992;28;20194;-52
2024/01/22 06:14:14;;;;;;;3.30;2.10;;;8.40;1.00;;;;;;5014370;28;20199;-52
2024/01/22 06:16:39;;;;;;;4.23;2.60;;;8.40;1.00;;;;;;5013027;28;20644;-52
2024/01/22 06:19:05;;;;;;;2.63;1.93;;;8.40;1.00;;;;;;5013605;28;20513;-52
2024/01/22 06:21:30;;;;;;;2.70;1.97;;;8.50;1.00;;;;;;5012598;28;20193;-52
2024/01/22 06:23:57;;;;;;;4.27;2.00;;;8.60;1.00;;;;;;5013500;28;20228;-52
2024/01/22 06:26:23;;;;;;;4.87;2.17;;;8.80;1.00;;;;;;5013615;28;20176;-52
2024/01/22 06:28:49;;;;;;;3.20;2.10;;;8.90;99.90;;;;;;5013902;28;20415;-51
2024/01/22 06:31:15;;;;;;;2.47;2.00;;;9.00;99.90;;;;;;5012477;28;20427;-53
2024/01/22 06:33:41;;;;;;;3.07;1.73;;;9.10;99.90;;;;;;5013432;28;20270;-53
2024/01/22 06:36:07;;;;;;;3.63;1.93;;;9.20;99.90;;;;;;5012619;28;20970;-53
2024/01/22 06:38:32;;;;;;;5.03;1.97;;;9.30;99.90;;;;;;5012969;28;20427;-53
2024/01/22 06:40:58;;;;;;;4.93;1.80;;;9.30;99.90;;;;;;5013268;28;20199;-52
2024/01/22 06:43:24;;;;;;;5.83;2.00;;;9.40;99.90;;;;;;5013483;28;20215;-52
2024/01/22 06:45:50;;;;;;;1.77;1.50;;;9.40;99.90;;;;;;5012730;28;20223;-51
2024/01/22 06:48:15;;;;;;;4.07;1.87;;;9.50;99.90;;;;;;5012698;28;20820;-53
2024/01/22 06:50:41;;;;;;;2.37;2.00;;;9.50;99.90;;;;;;5027974;28;20226;-53
2024/01/22 06:53:06;;;;;;;3.13;1.80;;;9.50;99.90;;;;;;5013429;28;20188;-53
2024/01/22 06:55:32;;;;;;;4.20;1.80;;;9.60;99.90;;;;;;5013188;28;20172;-53
2024/01/22 06:57:58;;;;;;;1.60;1.40;;;9.60;99.90;;;;;;5011308;28;20192;-53
2024/01/22 07:00:23;;;;;;;1.50;1.40;;;9.60;99.90;;;;;;5012952;28;20180;-52
2024/01/22 07:02:49;;;;;;;5.43;1.90;;;9.60;99.90;;;;;;5013040;28;20191;-52
2024/01/22 07:05:15;;;;;;;3.60;1.63;;;9.70;99.90;;;;;;5012799;28;20230;-53
2024/01/22 07:07:41;;;;;;;2.43;1.70;;;9.70;99.90;;;;;;5013202;28;20188;-52
2024/01/22 07:10:08;;;;;;;2.10;1.80;;;9.70;99.90;;;;;;5013420;28;20475;-53
2024/01/22 07:12:34;;;;;;;3.13;1.83;;;9.80;99.90;;;;;;5010746;28;20550;-52
2024/01/22 07:15:04;;;;;;;1.77;1.60;;;9.80;99.90;;;;;;5012337;28;20426;-51
2024/01/22 07:17:30;;;;;;;2.80;1.53;;;9.90;99.90;;;;;;5013076;28;20435;-52
2024/01/22 07:19:56;;;;;;;2.20;1.70;;;9.90;99.90;;;;;;5013613;28;20419;-51
2024/01/22 07:22:22;;;;;;;1.80;1.70;;;10.00;99.90;;;;;;5011060;28;20784;-51
2024/01/22 07:24:47;;;;;;;1.80;1.60;;;10.00;99.90;;;;;;5011720;28;20545;-50
2024/01/22 07:27:13;;;;;;;1.80;1.70;;;10.00;99.90;;;;;;5013014;28;20181;-51
2024/01/22 07:29:38;;;;;;;3.33;1.80;;;10.00;99.90;;;;;;5012571;28;20180;-51
2024/01/22 07:32:04;;;;;;;3.63;1.70;;;10.00;99.90;;;;;;5012233;28;20191;-50
2024/01/22 07:34:30;;;;;;;1.70;1.60;;;10.00;99.90;;;;;;5011167;28;20199;-52
2024/01/22 07:36:55;;;;;;;2.33;1.60;;;10.10;99.90;;;;;;5011445;28;20184;-52
2024/01/22 07:39:21;;;;;;;1.60;1.50;;;10.10;99.90;;;;;;5012575;28;20181;-52
2024/01/22 07:41:46;;;;;;;1.80;1.70;;;10.10;99.90;;;;;;5012819;28;20180;-51
2024/01/22 07:44:12;;;;;;;1.80;1.70;;;10.10;99.90;;;;;;5011187;28;20215;-52
2024/01/22 07:46:38;;;;;;;2.33;1.73;;;10.10;99.90;;;;;;5012159;28;20188;-52
2024/01/22 07:49:04;;;;;;;4.43;1.80;;;10.10;99.90;;;;;;5010785;28;20227;-51
2024/01/22 07:51:30;;;;;;;1.67;1.57;;;10.10;99.90;;;;;;5011914;28;20930;-52
2024/01/22 07:53:55;;;;;;;2.80;1.93;;;10.10;99.90;;;;;;5011252;28;20190;-52
2024/01/22 07:56:21;;;;;;;3.03;1.80;;;10.10;99.90;;;;;;5011495;28;20242;-51
2024/01/22 07:58:47;;;;;;;2.27;2.07;;;10.00;1.00;;;;;;5010910;28;20195;-52
2024/01/22 08:01:14;;;;;;;2.33;2.00;;;9.90;86.30;;;;;;5012540;28;20419;-51
2024/01/22 08:03:39;;;;;;;3.47;1.90;;;9.90;99.90;;;;;;5011144;28;20215;-51
2024/01/22 08:06:05;;;;;;;4.10;2.10;;;9.90;99.90;;;;;;5011831;28;20427;-52
2024/01/22 08:08:40;;;;;;;3.00;2.10;;;9.90;99.90;;;;;;5076601;27;20640;-51
2024/01/22 08:11:06;;;;;;;2.63;2.10;;;9.90;99.90;;;;;;5075958;28;20455;-51
2024/01/22 08:13:32;;;;;;;4.20;2.30;;;9.90;99.90;;;;;;5086376;28;20435;-53
2024/01/22 08:15:57;;;;;;;2.50;2.30;;;9.90;99.90;;;;;;5086814;28;20196;-50
2024/01/22 08:18:23;;;;;;;2.60;1.90;;;9.90;1.00;;;;;;5085221;28;20200;-52
2024/01/22 08:20:49;;;;;;;3.10;2.13;;;9.90;29.00;;;;;;5088176;28;20189;-51
2024/01/22 08:23:14;;;;;;;8.60;2.23;;;9.80;99.90;;;;;;5085386;28;20224;-51
2024/01/22 08:25:40;;;;;;;4.17;2.33;;;9.80;1.00;;;;;;5079724;28;20194;-53
2024/01/22 08:28:05;;;;;;;3.83;2.70;;;9.80;99.90;;;;;;5078009;28;20714;-52
2024/01/22 08:30:32;;;;;;;5.43;2.90;;;9.70;99.90;;;;;;5083745;28;20185;-50
2024/01/22 08:32:58;;;;;;;6.23;3.40;;;9.70;1.00;;;;;;5081519;28;20304;-51
2024/01/22 08:35:23;;;;;;;3.43;2.40;;;9.70;1.00;;;;;;5085038;28;21236;-51
2024/01/22 08:37:54;;;;;;;5.10;3.20;;;9.70;96.60;;;;;;5083816;28;20186;-51
2024/01/22 08:40:21;;;;;;;3.40;2.87;;;9.70;99.90;;;;;;5086606;28;20185;-51
2024/01/22 08:42:57;;;;;;;3.90;3.47;;;9.70;1.00;;;;;;5087316;28;20915;-51
2024/01/22 08:45:23;;;;;;;4.00;3.60;;;9.70;1.00;;;;;;5076034;28;20431;-51
2024/01/22 08:47:49;;;;;;;3.60;3.07;;;9.70;1.00;;;;;;5081374;28;20483;-50
2024/01/22 08:50:21;;;;;;;7.07;5.33;;;9.80;1.00;;;;;;5081097;28;20190;-51
2024/01/22 08:52:47;;;;;;;4.83;3.20;;;9.80;53.10;;;;;;5082265;28;20424;-51
2024/01/22 08:55:14;;;;;;;3.07;2.83;;;9.80;99.90;;;;;;5085470;28;20861;-51
2024/01/22 08:57:40;;;;;;;6.87;3.20;;;9.90;1.00;;;;;;5086853;28;20981;-50
2024/01/22 09:00:10;;;;;;;3.87;3.47;;;9.90;99.90;;;;;;5078766;28;20467;-51
2024/01/22 09:02:40;;;;;;;4.25;2.83;;;10.00;99.90;;;;;;5085735;28;20463;-51
2024/01/22 09:05:10;;;;;;;7.53;3.63;;;10.00;11.40;;;;;;5085446;28;20224;-51
2024/01/22 09:07:36;;;;;;;3.83;3.40;;;10.00;1.00;;;;;;5073132;28;20499;-52
2024/01/22 09:10:05;;;;;;;5.53;4.20;;;10.00;1.00;;;;;;5068134;28;20494;-52
2024/01/22 09:12:31;;;;;;;4.03;3.63;;;10.00;1.00;;;;;;5066414;28;20858;-51
2024/01/22 09:14:56;;;;;;;4.03;3.60;;;10.00;53.20;;;;;;5066949;28;20507;-51
2024/01/22 09:17:22;;;;;;;5.07;4.17;;;10.00;99.90;;;;;;5069816;28;20188;-53
2024/01/22 09:19:47;;;;;;;3.47;3.27;;;10.00;67.90;;;;;;5073622;28;20248;-51
2024/01/22 09:22:14;;;;;;;4.10;3.70;;;10.10;1.00;;;;;;5072537;28;20178;-52
2024/01/22 09:24:39;;;;;;;6.50;3.70;;;10.10;1.00;;;;;;5074044;28;20189;-51
2024/01/22 09:27:05;;;;;;;4.70;3.43;;;10.10;1.00;;;;;;5073235;28;20452;-52
2024/01/22 09:29:30;;;;;;;4.67;3.30;;;10.10;1.00;;;;;;5071932;28;20178;-52
2024/01/22 09:31:56;;;;;;;9.20;3.77;;;10.20;99.90;;;;;;5072704;28;20173;-52
2024/01/22 09:34:21;;;;;;;5.50;4.37;;;10.20;99.90;;;;;;5072441;28;20179;-52
2024/01/22 09:36:47;;;;;;;6.83;3.67;;;10.30;99.90;;;;;;5073068;28;20221;-52
2024/01/22 09:39:12;;;;;;;5.60;3.40;;;10.30;99.90;;;;;;5073275;28;20186;-53
2024/01/22 09:41:38;;;;;;;6.73;3.30;;;10.30;32.30;;;;;;5072882;28;20178;-52
2024/01/22 09:44:06;;;;;;;6.07;3.50;;;10.40;1.00;;;;;;5072842;28;20181;-52
2024/01/22 09:46:32;;;;;;;5.30;3.47;;;10.40;1.00;;;;;;5072916;28;20412;-53
2024/01/22 09:48:58;;;;;;;4.10;3.20;;;10.40;99.90;;;;;;5072434;28;20424;-54
2024/01/22 09:51:24;;;;;;;4.73;3.63;;;10.50;99.90;;;;;;5071783;28;20439;-53
2024/01/22 09:53:51;;;;;;;3.57;3.27;;;10.50;99.90;;;;;;5067697;28;20417;-52
2024/01/22 09:56:20;;;;;;;6.77;3.10;;;10.50;1.00;;;;;;5071175;28;20182;-51
2024/01/22 09:58:48;;;;;;;7.33;3.20;;;10.60;1.00;;;;;;5072433;28;21255;-51
2024/01/22 10:01:15;;;;;;;4.40;3.30;;;10.40;20.80;;;;;;5071923;28;20420;-51
2024/01/22 10:03:43;;;;;;;4.87;3.70;;;10.50;99.90;;;;;;5073099;28;20413;-52
2024/01/22 10:06:08;;;;;;;6.50;3.60;;;10.40;51.10;;;;;;5071910;28;20920;-51
2024/01/22 10:08:34;;;;;;;7.17;3.80;;;10.40;1.00;;;;;;5071641;28;20503;-50
2024/01/22 10:11:01;;;;;;;4.40;4.00;;;10.30;1.00;;;;;;5071197;28;20182;-51
2024/01/22 10:13:26;;;;;;;5.77;3.83;;;10.30;1.00;;;;;;5073099;28;20178;-51
2024/01/22 10:15:52;;;;;;;6.40;4.40;;;10.20;99.90;;;;;;5072137;28;20770;-50
2024/01/22 10:18:18;;;;;;;5.33;4.20;;;10.30;1.00;;;;;;5072517;28;20295;-50
2024/01/22 10:20:45;;;;;;;4.87;4.37;;;10.30;91.80;;;;;;5071551;28;20179;-50
2024/01/22 10:23:12;;;;;;;5.40;4.07;;;10.30;1.00;;;;;;5072330;28;20924;-50
2024/01/22 10:25:38;;;;;;;5.57;4.73;;;10.30;99.90;;;;;;5071346;28;20420;-48
2024/01/22 10:28:18;;;;;;;4.90;4.50;;;10.30;1.00;;;;;;5071646;28;20460;-53
2024/01/22 10:30:45;;;;;;;5.90;4.10;;;10.30;99.90;;;;;;5071523;28;20432;-49
2024/01/22 10:33:18;;;;;;;8.60;4.60;;;10.30;34.80;;;;;;5071764;28;20455;-49
2024/01/22 10:35:46;;;;;;;9.70;2.87;;;10.20;1.00;;;;;;5071685;28;20451;-48
2024/01/22 10:38:13;;;;;;;11.57;3.30;;;10.00;1.00;;;;;;5071869;28;20436;-48
2024/01/22 10:40:40;;;;;;;8.07;1.87;;;9.70;1.00;;;;;;5071685;28;20442;-48
2024/01/22 10:43:26;;;;;;;10.80;2.10;;;9.50;99.90;;;;;;5071118;28;20413;-48
2024/01/22 10:45:54;;;;;;;8.87;1.87;;;9.40;74.70;;;;;;5070881;28;20416;-49
2024/01/22 10:48:23;;;;;;;7.07;1.87;;;9.20;1.00;;;;;;5071358;28;20456;-48
2024/01/22 10:50:50;;;;;;;9.83;2.13;;;9.20;99.90;;;;;;5072373;28;20821;-48
2024/01/22 10:53:16;;;;;;;8.00;1.93;;;9.10;99.90;;;;;;5071266;28;20780;-48
2024/01/22 10:55:52;;;;;;;13.40;1.97;;;9.10;1.00;;;;;;5070583;28;20496;-48
2024/01/22 10:58:27;;;;;;;7.67;2.27;;;9.00;1.00;;;;;;5071295;28;20158;-48
2024/01/22 11:01:01;;;;;;;10.90;2.40;;;9.00;1.00;;;;;;5071307;28;20421;-48
2024/01/22 11:03:28;;;;;;;11.50;2.90;;;9.10;1.00;;;;;;5070117;28;20776;-53
2024/01/22 11:06:00;;;;;;;13.90;2.43;;;9.10;1.00;;;;;;5071859;28;20816;-49
2024/01/22 11:08:30;;;;;;;16.63;3.03;;;9.10;1.00;;;;;;5070651;28;20526;-49
2024/01/22 11:10:56;;;;;;;19.57;3.40;;;9.10;8.30;;;;;;5070904;28;20427;-49
2024/01/22 11:13:22;;;;;;;18.60;3.53;;;9.20;11.30;;;;;;5071109;28;20499;-49
2024/01/22 11:15:48;;;;;;;12.20;2.50;;;9.20;1.00;;;;;;5070776;28;20819;-49
2024/01/22 11:18:13;;;;;;;9.83;2.50;;;9.20;1.00;;;;;;5070520;28;20288;-47
2024/01/22 11:20:39;;;;;;;14.87;2.40;;;9.20;1.00;;;;;;5070090;28;20178;-47
2024/01/22 11:23:09;;;;;;;16.87;3.20;;;9.30;1.00;;;;;;5070247;28;20183;-47
2024/01/22 11:25:36;;;;;;;9.20;2.83;;;9.30;1.00;;;;;;5070897;28;20201;-47
2024/01/22 11:28:09;;;;;;;14.00;3.07;;;9.30;1.00;;;;;;5070961;28;20472;-47
2024/01/22 11:30:44;;;;;;;19.77;3.43;;;9.40;1.00;;;;;;5070950;28;20466;-47
2024/01/22 11:33:25;;;;;;;14.90;2.73;;;9.60;1.00;;;;;;5069991;28;20415;-48
2024/01/22 11:35:51;;;;;;;19.77;2.93;;;9.60;84.50;;;;;;5070736;28;20415;-48
2024/01/22 11:38:56;;;;;;;20.03;3.30;;;9.70;1.00;;;;;;5071181;28;20826;-48
2024/01/22 11:41:29;;;;;;;17.90;3.43;;;9.70;1.00;;;;;;5007232;28;20434;-48
2024/01/22 11:43:54;;;;;;;23.53;4.80;;;9.80;1.00;;;;;;5008566;28;20407;-48
2024/01/22 11:46:20;;;;;;;20.30;3.37;;;9.90;99.90;;;;;;5038763;28;20431;-48
2024/01/22 11:48:45;;;;;;;17.60;3.37;;;9.90;1.00;;;;;;5071617;28;20715;-48
2024/01/22 11:51:11;;;;;;;16.57;3.07;;;9.90;1.00;;;;;;5069954;28;20589;-48
2024/01/22 11:53:53;;;;;;;18.80;3.50;;;10.00;1.00;;;;;;5070782;28;20713;-48
2024/01/22 11:56:23;;;;;;;17.77;3.30;;;9.90;1.00;;;;;;5069819;28;20977;-48
2024/01/22 11:59:01;;;;;;;14.97;3.10;;;9.90;1.00;;;;;;5070990;28;20412;-48
2024/01/22 12:01:27;;;;;;;11.90;3.07;;;9.80;99.90;;;;;;5070813;28;20408;-49
2024/01/22 12:03:53;;;;;;;13.40;3.40;;;9.70;99.90;;;;;;5069497;28;20911;-48
2024/01/22 12:06:19;;;;;;;9.03;2.87;;;9.70;99.90;;;;;;5070747;28;20873;-48
2024/01/22 12:08:56;;;;;;;21.67;3.47;;;9.70;99.90;;;;;;5070328;28;20166;-48
2024/01/22 12:11:22;;;;;;;13.90;3.57;;;9.80;99.90;;;;;;5070126;28;20408;-48
2024/01/22 12:13:47;;;;;;;16.43;3.70;;;9.80;99.90;;;;;;5070165;28;20415;-48
2024/01/22 12:16:14;;;;;;;22.10;3.00;;;9.80;99.90;;;;;;5070223;28;20548;-49
2024/01/22 12:18:40;;;;;;;23.37;4.23;;;9.80;1.00;;;;;;5070613;28;20185;-48
2024/01/22 12:21:08;;;;;;;23.47;4.03;;;9.80;1.00;;;;;;5069362;28;20469;-48
2024/01/22 12:23:34;;;;;;;20.43;3.43;;;9.70;99.90;;;;;;5069493;28;20642;-48
2024/01/22 12:26:01;;;;;;;19.03;3.40;;;9.70;1.00;;;;;;5070175;28;20421;-48
2024/01/22 12:28:26;;;;;;;19.17;3.50;;;9.70;99.90;;;;;;5070610;28;20500;-48
2024/01/22 12:31:02;;;;;;;20.50;3.80;;;9.70;24.50;;;;;;5070021;28;20455;-48
2024/01/22 12:33:32;;;;;;;22.27;3.63;;;9.80;1.00;;;;;;5069354;28;20224;-48
2024/01/22 12:36:11;;;;;;;15.43;3.40;;;9.80;1.00;;;;;;5070788;28;20418;-48
2024/01/22 12:38:50;;;;;;;17.67;4.37;;;9.80;99.90;;;;;;5070311;28;20511;-48
2024/01/22 12:41:16;;;;;;;17.20;3.40;;;9.90;99.90;;;;;;5070270;28;20876;-48
2024/01/22 12:43:42;;;;;;;22.03;3.80;;;9.90;1.00;;;;;;5068953;28;20420;-48
2024/01/22 12:46:14;;;;;;;22.67;3.87;;;9.80;1.00;;;;;;5070083;28;20507;-47
2024/01/22 12:48:40;;;;;;;30.53;4.53;;;9.80;1.00;;;;;;5069910;28;20289;-47
2024/01/22 12:51:07;;;;;;;31.17;4.30;;;9.70;1.00;;;;;;5069268;28;20465;-48
2024/01/22 12:53:33;;;;;;;21.07;4.17;;;9.70;99.90;;;;;;5070292;28;20912;-48